Time;durP1;ratioP1;P1;durP2;ratioP2;P2;SDS_P1;SDS_P2;PMS_P1;PMS_P2;Temp;Humidity;BMP_temperature;BMP_pressure;BME280_temperature;BME280_humidity;BME280_pressure;Samples;Min_cycle;Max_cycle;Signal;HPM_P1;HPM_P2
2021/09/19 00:02:27;;;;;;;12.10;7.75;;;;;;;8.49;97.67;100387.44;1752230;81;25807;-74
2021/09/19 00:04:54;;;;;;;9.98;6.53;;;;;;;8.47;97.81;100387.62;1699230;81;25352;-75
2021/09/19 00:07:21;;;;;;;11.97;7.60;;;;;;;8.47;97.72;100388.95;1689755;82;27460;-74
2021/09/19 00:09:48;;;;;;;9.95;6.40;;;;;;;8.48;97.75;100380.45;1751317;80;25949;-74
2021/09/19 00:12:15;;;;;;;10.43;6.53;;;;;;;8.48;97.88;100389.80;1747048;81;25373;-75
2021/09/19 00:14:42;;;;;;;13.03;7.37;;;;;;;8.49;97.73;100388.77;1704591;81;25848;-74
2021/09/19 00:17:09;;;;;;;14.10;6.70;;;;;;;8.47;97.66;100391.62;1688235;82;26017;-74
2021/09/19 00:19:36;;;;;;;11.25;6.70;;;;;;;8.48;97.58;100389.80;1754466;80;27514;-75
2021/09/19 00:22:04;;;;;;;12.30;7.05;;;;;;;8.47;97.63;100392.13;1752013;81;25584;-74
2021/09/19 00:24:31;;;;;;;11.05;6.40;;;;;;;8.46;97.71;100391.32;1706027;81;26591;-74
2021/09/19 00:26:59;;;;;;;12.98;6.83;;;;;;;8.47;97.74;100394.80;1719455;81;25919;-74
2021/09/19 00:29:26;;;;;;;10.32;6.08;;;;;;;8.47;97.67;100398.30;1755522;81;25812;-74
2021/09/19 00:31:53;;;;;;;9.83;5.97;;;;;;;8.47;97.54;100391.62;1759965;81;27614;-74
2021/09/19 00:34:20;;;;;;;13.40;6.58;;;;;;;8.46;97.59;100393.98;1689654;82;25796;-74
2021/09/19 00:36:48;;;;;;;9.38;6.10;;;;;;;8.46;97.47;100394.48;1694612;80;25792;-74
2021/09/19 00:39:15;;;;;;;10.00;6.22;;;;;;;8.46;97.56;100396.66;1719068;81;26628;-74
2021/09/19 00:41:42;;;;;;;8.68;5.78;;;;;;;8.45;97.34;100395.48;1760310;80;25790;-74
2021/09/19 00:44:11;;;;;;;10.50;6.50;;;;;;;8.47;97.48;100400.13;1712887;80;27489;-74
2021/09/19 00:46:39;;;;;;;8.90;5.87;;;;;;;8.47;97.40;100396.13;1683697;82;25956;-74
2021/09/19 00:49:06;;;;;;;11.40;6.25;;;;;;;8.47;97.39;100391.62;1771084;80;25957;-74
2021/09/19 00:51:34;;;;;;;11.45;6.37;;;;;;;8.48;97.22;100393.30;1738713;81;25784;-74
2021/09/19 00:54:04;;;;;;;11.28;7.15;;;;;;;8.47;97.11;100393.46;1704947;81;26612;-74
2021/09/19 00:56:31;;;;;;;12.43;6.75;;;;;;;8.46;97.16;100387.81;1709269;80;27428;-74
2021/09/19 00:58:58;;;;;;;13.10;6.70;;;;;;;8.47;97.29;100392.97;1727703;82;25917;-74
2021/09/19 01:01:26;;;;;;;13.48;6.97;;;;;;;8.48;97.14;100389.80;1771940;79;25734;-74
2021/09/19 01:03:53;;;;;;;8.40;5.80;;;;;;;8.47;97.16;100397.47;1649705;82;25850;-74
2021/09/19 01:06:21;;;;;;;13.58;6.40;;;;;;;8.49;97.20;100394.95;1734812;81;25954;-74
2021/09/19 01:08:48;;;;;;;12.53;5.80;;;;;;;8.48;97.01;100395.97;1709872;81;28200;-74
2021/09/19 01:11:18;;;;;;;8.43;6.00;;;;;;;8.51;97.06;100400.13;1710341;81;25742;-74
2021/09/19 01:13:47;;;;;;;8.98;5.62;;;;;;;8.49;97.03;100392.28;1759507;81;26595;-74
2021/09/19 01:16:18;;;;;;;9.03;6.60;;;;;;;8.50;97.05;100395.30;1730523;82;26179;-74
2021/09/19 01:18:46;;;;;;;;;;;;;;;8.53;96.97;100394.11;1723032;81;26550;-74
2021/09/19 01:21:16;;;;;;;9.30;5.75;;;;;;;8.53;96.95;100397.59;1711550;81;28067;-74
2021/09/19 01:24:00;;;;;;;11.30;6.10;;;;;;;8.53;96.94;100400.25;1748824;80;25869;-74
2021/09/19 01:26:28;;;;;;;8.40;6.05;;;;;;;8.54;96.77;100401.09;1739491;80;25791;-74
2021/09/19 01:28:55;;;;;;;12.63;6.72;;;;;;;8.52;96.81;100402.61;1649933;82;25894;-74
2021/09/19 01:31:23;;;;;;;11.48;6.00;;;;;;;8.53;96.68;100403.45;1708159;81;25919;-74
2021/09/19 01:33:50;;;;;;;8.43;5.55;;;;;;;8.52;96.47;100399.11;1763979;81;27217;-74
2021/09/19 01:36:18;;;;;;;10.20;6.08;;;;;;;8.51;96.51;100398.27;1708980;81;26050;-74
2021/09/19 01:38:46;;;;;;;12.18;5.70;;;;;;;8.50;96.47;100399.30;1730378;81;26492;-74
2021/09/19 01:41:20;;;;;;;8.18;5.47;;;;;;;8.48;96.42;100391.97;1720581;81;26178;-74
2021/09/19 01:43:47;;;;;;;10.35;5.90;;;;;;;8.49;96.67;100395.45;1734354;82;25866;-74
2021/09/19 01:46:14;;;;;;;10.68;5.87;;;;;;;8.49;96.34;100393.61;1698111;81;27661;-74
2021/09/19 01:48:42;;;;;;;11.57;6.10;;;;;;;8.50;96.17;100392.63;1702756;81;25752;-74
2021/09/19 01:51:10;;;;;;;11.20;5.87;;;;;;;8.49;96.37;100385.61;1690033;81;25994;-74
2021/09/19 01:53:39;;;;;;;9.58;5.30;;;;;;;8.52;96.24;100393.77;1755535;79;26552;-74
2021/09/19 01:56:07;;;;;;;8.78;6.20;;;;;;;8.54;95.99;100393.08;1707853;81;26009;-74
2021/09/19 01:58:44;;;;;;;9.35;5.33;;;;;;;8.55;96.11;100390.75;1729856;81;28407;-74
2021/09/19 02:01:11;;;;;;;11.93;7.20;;;;;;;8.55;95.88;100384.08;1692930;81;25751;-74
2021/09/19 02:03:40;;;;;;;9.30;5.40;;;;;;;8.57;95.93;100389.23;1759128;81;26461;-74
2021/09/19 02:06:10;;;;;;;9.73;5.08;;;;;;;8.57;95.95;100391.41;1736923;80;25854;-74
2021/09/19 02:08:37;;;;;;;11.12;5.75;;;;;;;8.58;95.67;100389.05;1726261;81;25795;-74
2021/09/19 02:11:08;;;;;;;9.85;5.53;;;;;;;8.58;95.58;100385.04;1698645;81;27532;-74
2021/09/19 02:13:36;;;;;;;;;;;;;;;8.59;95.43;100384.55;1746615;81;26528;-74
2021/09/19 02:16:05;;;;;;;9.18;4.95;;;;;;;8.59;95.40;100388.05;1682298;81;25874;-74
2021/09/19 02:18:33;;;;;;;7.20;5.03;;;;;;;8.55;95.33;100390.23;1726804;81;25909;-74
2021/09/19 02:21:03;;;;;;;8.48;5.03;;;;;;;8.57;95.25;100388.73;1761392;81;25950;-74
2021/09/19 02:23:30;;;;;;;7.85;5.10;;;;;;;8.57;95.35;100394.57;1734947;81;28167;-74
2021/09/19 02:25:57;;;;;;;10.38;5.45;;;;;;;8.57;95.34;100387.40;1714743;81;26673;-74
2021/09/19 02:28:25;;;;;;;7.42;5.83;;;;;;;8.57;95.25;100387.40;1674034;81;25782;-74
2021/09/19 02:30:52;;;;;;;7.72;4.67;;;;;;;8.59;95.07;100389.39;1716106;81;26221;-74
2021/09/19 02:33:20;;;;;;;8.63;4.83;;;;;;;8.60;94.76;100388.89;1791808;78;25884;-74
2021/09/19 02:35:47;;;;;;;10.03;4.78;;;;;;;8.60;94.56;100384.36;1753502;80;27660;-74
2021/09/19 02:38:14;;;;;;;8.28;5.83;;;;;;;8.61;94.91;100383.86;1692489;81;25834;-74
2021/09/19 02:40:41;;;;;;;6.45;4.70;;;;;;;8.62;94.90;100387.67;1724717;81;25844;-74
2021/09/19 02:43:09;;;;;;;11.38;5.55;;;;;;;8.64;94.86;100384.32;1761980;81;25815;-74
2021/09/19 02:45:36;;;;;;;8.23;5.42;;;;;;;8.63;94.58;100394.69;1734900;81;25890;-74
2021/09/19 02:48:04;;;;;;;8.03;4.60;;;;;;;8.64;94.67;100393.66;1733027;81;27422;-74
2021/09/19 02:50:31;;;;;;;10.08;5.92;;;;;;;8.64;94.58;100392.33;1716727;80;25839;-74
2021/09/19 02:52:58;;;;;;;8.08;5.30;;;;;;;8.63;94.28;100393.35;1757804;80;25870;-74
2021/09/19 02:55:25;;;;;;;8.03;4.90;;;;;;;8.63;94.52;100393.35;1727758;81;25890;-74
2021/09/19 02:57:52;;;;;;;7.95;4.65;;;;;;;8.64;94.50;100397.67;1688555;82;25953;-74
2021/09/19 03:00:21;;;;;;;7.47;5.15;;;;;;;8.64;94.33;100392.86;1698270;81;27535;-74
2021/09/19 03:02:51;;;;;;;14.03;5.50;;;;;;;8.64;94.45;100388.32;1731091;81;26179;-74
2021/09/19 03:05:19;;;;;;;8.50;4.70;;;;;;;8.67;94.44;100389.81;1742044;80;25846;-74
2021/09/19 03:07:46;;;;;;;9.33;5.62;;;;;;;8.67;94.19;100385.30;1708482;80;26208;-74
2021/09/19 03:10:15;;;;;;;5.85;4.60;;;;;;;8.66;94.19;100387.64;1726069;81;25822;-74
2021/09/19 03:12:42;;;;;;;9.35;4.80;;;;;;;8.67;94.25;100384.47;1760234;81;27577;-74
2021/09/19 03:15:11;;;;;;;10.80;4.87;;;;;;;8.69;94.27;100379.78;1708305;81;26068;-74
2021/09/19 03:17:38;;;;;;;12.13;5.95;;;;;;;8.69;94.16;100388.63;1687302;82;25831;-74
2021/09/19 03:20:08;;;;;;;8.35;4.85;;;;;;;8.70;94.12;100385.46;1731101;81;25926;-74
2021/09/19 03:22:36;;;;;;;9.50;4.83;;;;;;;8.71;94.01;100385.77;1772737;80;25849;-74
2021/09/19 03:25:04;;;;;;;10.32;5.00;;;;;;;8.68;93.87;100382.98;1746042;81;27369;-75
2021/09/19 03:27:32;;;;;;;7.45;5.12;;;;;;;8.68;94.07;100382.98;1709104;81;25797;-74
2021/09/19 03:29:59;;;;;;;7.97;4.42;;;;;;;8.69;94.11;100382.45;1723537;81;26664;-74
2021/09/19 03:32:26;;;;;;;8.38;4.95;;;;;;;8.69;94.08;100381.95;1732331;81;26231;-74
2021/09/19 03:34:53;;;;;;;9.18;4.45;;;;;;;8.70;94.19;100374.28;1722608;81;25818;-75
2021/09/19 03:37:20;;;;;;;8.05;5.15;;;;;;;8.70;94.04;100376.95;1712373;80;28688;-74
2021/09/19 03:39:47;;;;;;;13.70;5.45;;;;;;;8.69;94.08;100370.43;1722749;81;26569;-74
2021/09/19 03:42:14;;;;;;;10.65;5.35;;;;;;;8.71;94.09;100377.75;1763691;81;25864;-74
2021/09/19 03:44:41;;;;;;;8.48;5.10;;;;;;;8.70;94.05;100376.11;1749675;81;25849;-74
2021/09/19 03:47:08;;;;;;;8.60;5.05;;;;;;;8.68;94.12;100378.97;1708818;81;25936;-74
2021/09/19 03:49:35;;;;;;;7.60;5.05;;;;;;;8.67;94.20;100377.30;1731106;81;28323;-74
2021/09/19 03:52:03;;;;;;;10.15;4.75;;;;;;;8.68;94.09;100378.97;1761846;80;25883;-74
2021/09/19 03:54:30;;;;;;;7.55;5.37;;;;;;;8.68;94.19;100376.80;1719759;81;25855;-74
2021/09/19 03:56:57;;;;;;;7.37;4.60;;;;;;;8.68;94.09;100381.64;1702714;81;25884;-74
2021/09/19 03:59:25;;;;;;;12.05;5.60;;;;;;;8.67;94.05;100383.97;1716453;81;25885;-74
2021/09/19 04:01:52;;;;;;;8.80;5.47;;;;;;;8.67;94.16;100381.30;1760723;81;27569;-74
2021/09/19 04:04:19;;;;;;;12.43;4.78;;;;;;;8.65;94.07;100381.15;1716581;81;25969;-74
2021/09/19 04:06:46;;;;;;;7.08;4.67;;;;;;;8.67;94.26;100383.13;1696951;80;25849;-74
2021/09/19 04:09:13;;;;;;;11.08;5.70;;;;;;;8.69;94.15;100381.11;1734894;81;25776;-74
2021/09/19 04:11:40;;;;;;;11.22;4.90;;;;;;;8.70;93.93;100385.46;1761074;81;25879;-74
2021/09/19 04:14:07;;;;;;;10.10;5.10;;;;;;;8.69;94.07;100385.95;1722160;81;28300;-75
2021/09/19 04:16:34;;;;;;;7.95;4.90;;;;;;;8.71;94.14;100382.59;1709676;80;26634;-74
2021/09/19 04:19:01;;;;;;;10.68;4.65;;;;;;;8.71;94.06;100379.09;1724789;81;25863;-74
2021/09/19 04:21:30;;;;;;;7.67;4.78;;;;;;;8.72;94.01;100382.94;1761329;80;26197;-74
2021/09/19 04:23:58;;;;;;;10.75;5.00;;;;;;;8.72;93.95;100384.27;1712449;82;25861;-74
2021/09/19 04:26:25;;;;;;;8.15;4.87;;;;;;;8.72;93.71;100390.11;1691740;82;28336;-74
2021/09/19 04:28:53;;;;;;;7.33;4.00;;;;;;;8.73;93.76;100388.59;1723401;81;25860;-74
2021/09/19 04:31:20;;;;;;;5.90;4.45;;;;;;;8.72;93.74;100384.27;1737131;82;26415;-74
2021/09/19 04:33:47;;;;;;;9.33;5.37;;;;;;;8.72;93.73;100384.27;1712780;81;26154;-74
2021/09/19 04:36:15;;;;;;;6.78;4.40;;;;;;;8.73;93.79;100383.25;1727461;79;26608;-74
2021/09/19 04:38:42;;;;;;;8.00;4.75;;;;;;;8.75;93.70;100383.89;1723161;79;27469;-74
2021/09/19 04:41:09;;;;;;;8.43;4.55;;;;;;;8.75;93.63;100387.91;1754763;79;26015;-74
2021/09/19 04:43:36;;;;;;;9.50;4.80;;;;;;;8.75;93.77;100387.91;1722020;79;25885;-74
2021/09/19 04:46:03;;;;;;;6.85;4.83;;;;;;;8.77;93.68;100393.89;1721260;79;25804;-74
2021/09/19 04:48:30;;;;;;;11.63;4.75;;;;;;;8.79;93.70;100395.06;1708170;79;25853;-74
2021/09/19 04:50:57;;;;;;;9.13;4.65;;;;;;;8.81;93.57;100391.71;1728328;81;28190;-74
2021/09/19 04:53:25;;;;;;;7.53;4.75;;;;;;;8.81;93.47;100394.38;1713006;81;25827;-74
2021/09/19 04:55:52;;;;;;;6.58;4.22;;;;;;;8.81;93.39;100391.18;1703697;81;25820;-74
2021/09/19 04:58:19;;;;;;;5.97;3.98;;;;;;;8.83;93.39;100394.50;1720218;81;26236;-74
2021/09/19 05:00:46;;;;;;;10.32;4.10;;;;;;;8.83;93.13;100388.36;1755256;81;25935;-74
2021/09/19 05:03:13;;;;;;;10.35;4.70;;;;;;;8.84;93.39;100388.66;1713964;81;27396;-74
2021/09/19 05:05:41;;;;;;;7.55;4.60;;;;;;;8.86;93.46;100394.65;1683373;82;25948;-74
2021/09/19 05:08:08;;;;;;;7.90;4.90;;;;;;;8.89;93.32;100395.64;1710636;79;26558;-74
2021/09/19 05:10:35;;;;;;;7.75;4.15;;;;;;;8.91;93.31;100396.28;1756203;81;26584;-74
2021/09/19 05:13:02;;;;;;;5.28;4.08;;;;;;;8.94;93.28;100392.73;1717350;81;25759;-74
2021/09/19 05:15:29;;;;;;;9.98;3.83;;;;;;;8.96;93.11;100399.25;1715704;81;27189;-74
2021/09/19 05:17:56;;;;;;;7.15;4.42;;;;;;;8.97;93.15;100400.40;1717426;81;25984;-74
2021/09/19 05:20:23;;;;;;;7.05;4.20;;;;;;;8.98;92.99;100394.03;1758224;80;25758;-74
2021/09/19 05:22:51;;;;;;;9.20;5.10;;;;;;;9.00;93.24;100390.67;1714591;81;26219;-74
2021/09/19 05:25:18;;;;;;;6.67;3.95;;;;;;;9.03;93.13;100394.33;1690728;80;25919;-74
2021/09/19 05:27:50;;;;;;;7.78;3.85;;;;;;;9.05;93.02;100382.95;1700621;82;27542;-74
2021/09/19 05:30:16;;;;;;;;;;;;;;;9.06;93.13;100389.97;1750936;81;25786;-74
2021/09/19 05:32:43;;;;;;;5.45;3.67;;;;;;;9.08;92.92;100389.78;1719993;81;26473;-74
2021/09/19 05:35:11;;;;;;;10.00;3.92;;;;;;;9.06;92.90;100391.30;1702196;81;25859;-75
2021/09/19 05:37:38;;;;;;;5.10;4.15;;;;;;;9.10;92.72;100387.75;1716773;81;25901;-74
2021/09/19 05:40:10;;;;;;;4.72;3.33;;;;;;;9.10;92.81;100385.08;1749993;81;27628;-74
2021/09/19 05:42:39;;;;;;;6.15;3.65;;;;;;;9.13;92.90;100386.88;1720920;81;25868;-74
2021/09/19 05:45:07;;;;;;;6.03;3.75;;;;;;;9.17;92.42;100386.02;1703799;81;25842;-74
2021/09/19 05:47:34;;;;;;;9.10;4.62;;;;;;;9.17;92.32;100388.16;1709334;82;26224;-74
2021/09/19 05:50:03;;;;;;;7.97;3.90;;;;;;;9.20;92.55;100385.63;1749488;80;26488;-74
2021/09/19 05:52:30;;;;;;;5.70;3.50;;;;;;;9.21;92.20;100389.98;1727599;81;27442;-74
2021/09/19 05:54:58;;;;;;;6.97;3.83;;;;;;;9.24;92.48;100389.59;1704199;81;26547;-74
2021/09/19 05:57:25;;;;;;;7.55;3.90;;;;;;;9.24;92.15;100390.44;1704562;81;26707;-73
2021/09/19 05:59:52;;;;;;;5.60;3.67;;;;;;;9.27;91.85;100389.25;1683608;82;26219;-75
2021/09/19 06:02:19;;;;;;;5.37;4.10;;;;;;;9.28;91.80;100385.04;1723897;80;26119;-75
2021/09/19 06:04:46;;;;;;;8.50;3.30;;;;;;;9.30;91.86;100384.88;1685836;82;27479;-76
2021/09/19 06:07:13;;;;;;;9.78;3.25;;;;;;;9.33;91.65;100389.84;1720998;81;25761;-76
2021/09/19 06:09:40;;;;;;;4.60;3.40;;;;;;;9.37;91.53;100390.33;1735386;81;26469;-74
2021/09/19 06:12:08;;;;;;;5.75;3.50;;;;;;;9.39;91.61;100386.96;1753928;79;25886;-74
2021/09/19 06:14:35;;;;;;;6.15;3.72;;;;;;;9.43;91.13;100386.37;1745528;79;26237;-75
2021/09/19 06:17:03;;;;;;;6.95;3.45;;;;;;;9.46;91.26;100386.52;1701965;81;27534;-75
2021/09/19 06:19:30;;;;;;;8.60;3.80;;;;;;;9.48;91.15;100386.66;1710931;81;26266;-74
2021/09/19 06:21:59;;;;;;;9.30;3.98;;;;;;;9.52;91.07;100391.12;1757940;81;26633;-74
2021/09/19 06:24:26;;;;;;;9.68;3.77;;;;;;;9.56;90.61;100381.75;1699737;81;25889;-74
2021/09/19 06:26:53;;;;;;;7.22;4.15;;;;;;;9.61;90.62;100382.00;1725242;81;26451;-74
2021/09/19 06:29:20;;;;;;;8.30;3.65;;;;;;;9.65;90.32;100380.11;1685442;82;27522;-76
2021/09/19 06:31:47;;;;;;;5.90;3.72;;;;;;;9.71;90.56;100374.55;1734293;81;25773;-75
2021/09/19 06:34:14;;;;;;;3.17;2.77;;;;;;;9.76;90.61;100377.47;1715088;81;26007;-74
2021/09/19 06:36:41;;;;;;;6.17;3.55;;;;;;;9.80;89.92;100374.73;1692461;81;25904;-75
2021/09/19 06:39:09;;;;;;;7.80;2.95;;;;;;;9.85;90.31;100381.20;1693425;81;26089;-75
2021/09/19 06:41:36;;;;;;;4.58;3.05;;;;;;;9.90;90.57;100380.11;1750039;81;27565;-74
2021/09/19 06:44:03;;;;;;;4.70;3.50;;;;;;;9.95;90.06;100377.71;1689413;82;26541;-74
2021/09/19 06:46:31;;;;;;;5.70;3.37;;;;;;;10.00;89.03;100386.52;1692377;80;26024;-75
2021/09/19 06:48:59;;;;;;;5.50;3.60;;;;;;;10.00;88.49;100385.17;1707003;79;25834;-74
2021/09/19 06:51:27;;;;;;;4.83;3.40;;;;;;;10.02;89.24;100387.16;1723010;79;25838;-75
2021/09/19 06:53:54;;;;;;;5.30;3.33;;;;;;;10.06;89.78;100394.62;1722653;81;27500;-75
2021/09/19 06:56:21;;;;;;;4.83;3.45;;;;;;;10.12;89.65;100393.06;1675870;82;25792;-75
2021/09/19 06:58:49;;;;;;;7.85;3.33;;;;;;;10.13;88.71;100393.39;1683728;81;25829;-75
2021/09/19 07:01:16;;;;;;;4.22;3.25;;;;;;;10.15;87.73;100398.55;1748398;79;25802;-75
2021/09/19 07:03:43;;;;;;;3.67;2.95;;;;;;;10.15;88.12;100394.03;1706778;80;25903;-75
2021/09/19 07:06:10;;;;;;;5.20;3.00;;;;;;;10.17;87.85;100390.66;1723799;81;27465;-75
2021/09/19 07:08:37;;;;;;;8.30;3.20;;;;;;;10.19;87.62;100392.63;1697566;81;25843;-75
2021/09/19 07:11:05;;;;;;;5.33;3.22;;;;;;;10.23;86.24;100396.59;1755585;81;25766;-75
2021/09/19 07:13:32;;;;;;;4.90;3.02;;;;;;;10.25;87.01;100396.39;1689288;82;26121;-75
2021/09/19 07:15:59;;;;;;;6.78;3.22;;;;;;;10.27;86.82;100393.02;1719165;81;25794;-75
2021/09/19 07:18:26;;;;;;;5.33;3.00;;;;;;;10.30;86.77;100390.80;1695547;81;27509;-75
2021/09/19 07:20:54;;;;;;;6.67;2.90;;;;;;;10.34;86.93;100393.92;1756366;81;25803;-75
2021/09/19 07:23:24;;;;;;;3.27;2.52;;;;;;;10.34;84.79;100398.77;1690993;82;26333;-75
2021/09/19 07:25:52;;;;;;;5.70;2.55;;;;;;;10.33;81.54;100397.63;1728238;80;25759;-75
2021/09/19 07:28:20;;;;;;;8.13;2.80;;;;;;;10.31;83.29;100394.31;1705245;81;25792;-75
2021/09/19 07:30:47;;;;;;;5.65;2.45;;;;;;;10.33;83.75;100403.79;1747525;79;28345;-75
2021/09/19 07:33:14;;;;;;;3.05;2.52;;;;;;;10.35;82.50;100398.27;1698701;80;25911;-75
2021/09/19 07:35:41;;;;;;;10.10;3.25;;;;;;;10.37;82.27;100401.05;1727583;81;25901;-75
2021/09/19 07:38:09;;;;;;;3.15;2.40;;;;;;;10.37;81.77;100393.02;1708313;81;26147;-75
2021/09/19 07:40:37;;;;;;;8.00;2.52;;;;;;;10.39;81.52;100388.83;1757962;80;25731;-75
2021/09/19 07:43:05;;;;;;;5.30;2.92;;;;;;;10.41;78.73;100394.33;1712768;81;27473;-75
2021/09/19 07:45:32;;;;;;;5.17;2.77;;;;;;;10.42;80.47;100395.97;1713501;82;25829;-75
2021/09/19 07:48:01;;;;;;;3.87;2.42;;;;;;;10.43;79.57;100406.17;1691792;81;25836;-75
2021/09/19 07:50:28;;;;;;;4.00;2.55;;;;;;;10.44;79.84;100399.28;1755864;81;25754;-75
2021/09/19 07:52:55;;;;;;;3.45;2.98;;;;;;;10.47;79.71;100391.38;1703584;81;25782;-75
2021/09/19 07:55:22;;;;;;;7.50;2.98;;;;;;;10.51;78.86;100398.84;1710390;81;27424;-75
2021/09/19 07:57:49;;;;;;;6.75;2.92;;;;;;;10.56;78.06;100402.30;1738087;81;25854;-75
2021/09/19 08:00:17;;;;;;;5.72;2.75;;;;;;;10.58;78.57;100396.23;1750214;81;25782;-75
2021/09/19 08:02:44;;;;;;;3.15;2.02;;;;;;;10.62;79.39;100399.68;1647773;84;25875;-75
2021/09/19 08:05:11;;;;;;;6.70;2.30;;;;;;;10.69;79.08;100398.41;1646757;84;25913;-75
2021/09/19 08:07:38;;;;;;;3.45;2.33;;;;;;;10.73;79.87;100396.45;1691596;81;27558;-75
2021/09/19 08:10:06;;;;;;;5.30;2.72;;;;;;;10.76;78.65;100402.78;1757797;79;25822;-74
2021/09/19 08:12:34;;;;;;;4.20;2.62;;;;;;;10.76;78.81;100398.77;1686248;82;25848;-75
2021/09/19 08:15:02;;;;;;;9.10;2.60;;;;;;;10.77;78.88;100396.42;1705634;81;26165;-76
2021/09/19 08:17:29;;;;;;;2.65;2.12;;;;;;;10.81;79.31;100400.37;1728899;81;25875;-76
2021/09/19 08:19:56;;;;;;;3.27;2.52;;;;;;;10.88;78.14;100399.59;1728542;81;27565;-75
2021/09/19 08:22:23;;;;;;;4.83;2.72;;;;;;;10.91;77.56;100398.68;1708734;81;26031;-76
2021/09/19 08:24:52;;;;;;;8.95;3.12;;;;;;;10.94;77.40;100392.95;1722879;81;25964;-75
2021/09/19 08:27:19;;;;;;;7.42;2.85;;;;;;;10.99;77.94;100403.09;1667432;82;25977;-77
2021/09/19 08:29:46;;;;;;;3.65;2.67;;;;;;;11.04;78.40;100399.30;1707184;82;26096;-77
2021/09/19 08:32:13;;;;;;;6.60;2.95;;;;;;;11.14;78.79;100397.13;1711907;81;27463;-75
2021/09/19 08:34:42;;;;;;;5.87;3.10;;;;;;;11.26;80.04;100399.57;1712752;80;26558;-75
2021/09/19 08:37:09;;;;;;;5.87;3.05;;;;;;;11.33;77.32;100395.09;1726749;81;26038;-75
2021/09/19 08:39:36;;;;;;;5.72;2.77;;;;;;;11.35;78.25;100391.70;1726271;81;25779;-75
2021/09/19 08:42:03;;;;;;;5.62;2.12;;;;;;;11.39;78.71;100391.11;1714032;80;25984;-75
2021/09/19 08:44:30;;;;;;;8.83;2.87;;;;;;;11.42;77.30;100393.89;1733935;81;28151;-76
2021/09/19 08:47:00;;;;;;;4.62;2.90;;;;;;;11.45;77.96;100398.36;1691027;82;25850;-75
2021/09/19 08:49:27;;;;;;;4.10;2.67;;;;;;;11.51;77.88;100402.94;1752130;80;25919;-75
2021/09/19 08:51:54;;;;;;;4.50;2.85;;;;;;;11.55;77.30;100397.99;1704619;81;25823;-75
2021/09/19 08:54:21;;;;;;;5.42;2.67;;;;;;;11.58;76.69;100401.63;1702507;82;26474;-75
2021/09/19 08:56:48;;;;;;;5.53;2.22;;;;;;;11.59;76.34;100400.59;1721952;82;27306;-76
2021/09/19 08:59:15;;;;;;;5.42;2.17;;;;;;;11.63;77.29;100402.69;1701578;82;25948;-75
2021/09/19 09:02:02;;;;;;;5.78;2.95;;;;;;;11.67;78.27;100399.14;1659318;83;25997;-75
2021/09/19 09:04:29;;;;;;;3.90;2.60;;;;;;;11.72;76.76;100403.92;1702045;83;25902;-75
2021/09/19 09:06:56;;;;;;;5.85;2.80;;;;;;;11.67;76.20;100400.48;1695099;83;26561;-75
2021/09/19 09:09:23;;;;;;;4.10;2.77;;;;;;;11.65;77.21;100410.02;1741746;81;27152;-75
2021/09/19 09:12:07;;;;;;;5.12;2.67;;;;;;;11.67;77.01;100413.06;1710244;82;25947;-74
2021/09/19 09:14:48;;;;;;;3.70;2.92;;;;;;;11.63;76.66;100415.30;1704523;82;26038;-75
2021/09/19 09:17:28;;;;;;;;;;;;;;;11.59;76.34;100411.32;1712810;82;26019;-75
2021/09/19 09:19:58;;;;;;;4.58;2.55;;;;;;;11.52;76.37;100424.72;1732621;82;26023;-75
2021/09/19 09:22:29;;;;;;;2.80;2.42;;;;;;;11.49;77.50;100421.59;1642081;83;27636;-75
2021/09/19 09:25:15;;;;;;;6.55;3.05;;;;;;;11.52;77.61;100422.55;1653779;83;26071;-75
2021/09/19 09:27:47;;;;;;;3.42;2.70;;;;;;;11.54;77.37;100424.02;1692871;82;26582;-75
2021/09/19 09:30:19;;;;;;;6.47;2.75;;;;;;;11.56;77.30;100427.83;1734527;82;26203;-75
2021/09/19 09:33:05;;;;;;;4.97;2.80;;;;;;;11.57;77.89;100428.13;1711228;82;25824;-76
2021/09/19 09:35:40;;;;;;;5.00;3.30;;;;;;;11.60;78.05;100421.05;1695061;82;27522;-75
2021/09/19 09:38:24;;;;;;;4.00;2.80;;;;;;;11.59;77.97;100430.10;1660678;82;26623;-75
2021/09/19 09:40:52;;;;;;;3.42;2.47;;;;;;;11.61;77.17;100430.77;1725609;82;25822;-75
2021/09/19 09:43:20;;;;;;;5.47;3.15;;;;;;;11.62;77.97;100436.42;1698496;83;26475;-75
2021/09/19 09:45:50;;;;;;;3.98;3.15;;;;;;;11.65;78.52;100431.48;1684159;82;26453;-75
2021/09/19 09:48:40;;;;;;;6.78;2.70;;;;;;;11.70;78.46;100430.13;1714075;82;28257;-75
2021/09/19 09:51:23;;;;;;;6.12;2.65;;;;;;;11.74;78.31;100438.09;1730538;82;25771;-77
2021/09/19 09:54:00;;;;;;;5.28;2.60;;;;;;;11.75;76.53;100431.67;1709494;81;25931;-78
2021/09/19 09:56:27;;;;;;;3.37;2.92;;;;;;;11.71;75.36;100439.30;1727244;81;26376;-77
2021/09/19 09:58:56;;;;;;;4.00;2.92;;;;;;;11.68;76.71;100438.85;1733109;79;25958;-75
2021/09/19 10:01:23;;;;;;;4.80;2.47;;;;;;;11.69;77.04;100439.18;1743273;79;28232;-75
2021/09/19 10:03:50;;;;;;;4.20;2.45;;;;;;;11.67;75.80;100431.84;1684008;82;25942;-74
2021/09/19 10:06:17;;;;;;;3.92;2.72;;;;;;;11.61;75.20;100439.61;1683733;82;25793;-75
2021/09/19 10:08:45;;;;;;;5.28;2.55;;;;;;;11.56;76.11;100439.40;1705838;82;26769;-75
2021/09/19 10:11:12;;;;;;;4.05;3.00;;;;;;;11.57;76.53;100444.22;1695680;83;25858;-74
2021/09/19 10:13:44;;;;;;;3.05;2.45;;;;;;;11.56;76.65;100446.10;1727382;81;28720;-74
2021/09/19 10:16:12;;;;;;;4.53;2.33;;;;;;;11.53;75.73;100438.94;1706798;82;25897;-75
2021/09/19 10:18:41;;;;;;;6.80;2.77;;;;;;;11.50;76.41;100451.42;1703936;82;26632;-75
2021/09/19 10:21:08;;;;;;;9.55;3.12;;;;;;;11.49;77.26;100448.41;1685014;82;26320;-74
2021/09/19 10:23:36;;;;;;;2.70;2.37;;;;;;;11.47;76.72;100453.14;1708290;82;25780;-74
2021/09/19 10:26:08;;;;;;;7.45;2.83;;;;;;;11.48;77.10;100452.94;1702885;82;28282;-75
2021/09/19 10:28:42;;;;;;;3.77;2.40;;;;;;;11.51;77.43;100451.22;1706400;82;25817;-75
2021/09/19 10:31:15;;;;;;;3.87;2.40;;;;;;;11.55;77.80;100455.16;1728440;82;26246;-74
2021/09/19 10:33:59;;;;;;;6.42;2.70;;;;;;;11.58;76.84;100449.41;1703204;82;25945;-74
2021/09/19 10:36:49;;;;;;;3.83;2.80;;;;;;;11.62;77.42;100450.67;1662554;82;26438;-75
2021/09/19 10:39:33;;;;;;;6.03;2.37;;;;;;;11.73;77.74;100447.98;1707644;82;27492;-74
2021/09/19 10:42:25;;;;;;;4.42;2.70;;;;;;;11.83;76.38;100451.13;1706813;83;26588;-74
2021/09/19 10:44:57;;;;;;;4.28;3.10;;;;;;;11.93;77.37;100451.59;1674523;84;25860;-75
2021/09/19 10:47:35;;;;;;;5.72;2.77;;;;;;;12.10;78.12;100449.41;1763780;80;25929;-74
2021/09/19 10:50:25;;;;;;;6.10;3.17;;;;;;;12.21;77.63;100442.94;1694535;83;25848;-75
2021/09/19 10:53:02;;;;;;;6.25;3.05;;;;;;;12.25;75.78;100448.22;1699329;84;27702;-75
2021/09/19 10:55:53;;;;;;;9.38;3.30;;;;;;;12.20;75.15;100449.86;1746841;81;26154;-74
2021/09/19 10:58:30;;;;;;;6.17;3.00;;;;;;;12.21;75.93;100452.34;1726125;81;34893;-75
2021/09/19 11:01:26;;;;;;;5.72;2.90;;;;;;;12.24;76.41;100439.86;1724479;80;26473;-75
2021/09/19 11:04:08;;;;;;;5.87;2.83;;;;;;;12.27;76.00;100439.44;1756862;80;26072;-75
2021/09/19 11:06:37;;;;;;;4.83;2.85;;;;;;;12.32;76.38;100444.21;1739175;80;28688;-75
2021/09/19 11:09:27;;;;;;;8.20;2.72;;;;;;;12.37;76.59;100450.66;1720148;81;25871;-75
2021/09/19 11:12:17;;;;;;;5.12;3.08;;;;;;;12.37;75.55;100443.94;1687578;82;26584;-75
2021/09/19 11:15:06;;;;;;;3.62;3.02;;;;;;;12.38;76.16;100441.55;1737176;81;25827;-75
2021/09/19 11:17:34;;;;;;;4.05;2.85;;;;;;;12.40;75.93;100446.20;1708885;81;26564;-75
2021/09/19 11:20:24;;;;;;;3.80;3.27;;;;;;;12.36;75.67;100444.95;1704358;81;28246;-75
2021/09/19 11:23:00;;;;;;;3.60;2.77;;;;;;;12.34;76.70;100445.67;1748380;81;25874;-75
2021/09/19 11:25:25;;;;;;;4.28;2.80;;;;;;;12.36;76.47;100448.14;1727946;81;26564;-75
2021/09/19 11:27:53;;;;;;;7.50;2.72;;;;;;;12.37;77.32;100447.13;1727164;81;26189;-75
2021/09/19 11:30:28;;;;;;;3.70;2.60;;;;;;;12.37;76.70;100456.03;1666880;83;25888;-75
2021/09/19 11:32:52;;;;;;;2.62;2.30;;;;;;;12.34;75.87;100448.36;1710375;83;28202;-75
2021/09/19 11:35:19;;;;;;;4.97;2.75;;;;;;;12.31;76.69;100456.84;1704547;83;25793;-75
2021/09/19 11:37:58;;;;;;;8.08;3.30;;;;;;;12.33;76.46;100457.97;1728486;81;25863;-76
2021/09/19 11:40:25;;;;;;;2.65;2.45;;;;;;;12.33;76.64;100455.28;1693665;82;26036;-75